Peotone Weather
Peotone-Weather Station Historical Data
 
Daily Summary for January 24, 2020 Units:  English    Metric   Both
Daily Weekly Monthly Yearly Custom
  Current: High: Low: Average:
Temperature: 34.3 °F 38.8 °F 33.6 °F 35.6 °F
Dew Point: 33.2 °F 37.8 °F 31.8 °F 34.3 °F
Humidity: 96% 96% 93% 95%
Wind Speed: 5.8mph 6.2mph 0.1mph 3.3mph
Wind Gust: 9.2mph 12.6mph - -
WindWSW - - ESE
Pressure: 29.84 in 29.98 in 29.81 in -
Precipitation: 0.13 in      
Historical Graphs
 
 
Tabular Data for January 24, 2020
Time Temperature Dew Point Pressure Wind Wind Speed Wind Gust Humidity Rainfall Rate (Hourly) solar
00:04 33.6 °F 31.8 °F 29.98 in ENE 3.4 mph 9.2 mph 93% 0.04 in 0 W/m2
00:09 33.7 °F 31.9 °F 29.98 in ENE 4.6 mph 10.3 mph 93% 0.05 in 0 W/m2
00:14 33.8 °F 32 °F 29.98 in ENE 4.9 mph 10.3 mph 93% 0.05 in 0 W/m2
00:19 33.8 °F 32 °F 29.97 in ENE 4.4 mph 10.3 mph 93% 0.05 in 0 W/m2
00:24 33.8 °F 32 °F 29.97 in ENE 5.4 mph 12.6 mph 93% 0.04 in 0 W/m2
00:29 33.9 °F 32.1 °F 29.97 in ENE 5.5 mph 12.6 mph 93% 0.04 in 0 W/m2
00:34 34 °F 32.2 °F 29.97 in ENE 6.2 mph 11.5 mph 93.2% 0.04 in 0 W/m2
00:39 34 °F 32.4 °F 29.96 in ENE 5.3 mph 10.3 mph 93.6% 0.04 in 0 W/m2
00:44 34 °F 32.4 °F 29.96 in ENE 5.3 mph 9.2 mph 93.9% 0.04 in 0 W/m2
00:49 34 °F 32.5 °F 29.96 in ENE 5.9 mph 12.6 mph 93.9% 0.03 in 0 W/m2
00:54 34.1 °F 32.5 °F 29.96 in ENE 5 mph 12.6 mph 94% 0.03 in 0 W/m2
00:59 34.1 °F 32.6 °F 29.96 in ENE 4.8 mph 10.3 mph 94% 0.03 in 0 W/m2
01:04 34.1 °F 32.5 °F 29.95 in ENE 4.5 mph 9.2 mph 94% 0.03 in 0 W/m2
01:09 34.1 °F 32.5 °F 29.95 in ENE 3.4 mph 9.2 mph 94% 0.02 in 0 W/m2
01:14 34.1 °F 32.5 °F 29.95 in ENE 4.1 mph 8.1 mph 94% 0.02 in 0 W/m2
01:19 34 °F 32.5 °F 29.95 in ENE 3.6 mph 8.1 mph 94% 0.02 in 0 W/m2
01:24 34 °F 32.3 °F 29.95 in ENE 3.2 mph 8.1 mph 93.4% 0.02 in 0 W/m2
01:29 34 °F 32.4 °F 29.95 in ENE 4.3 mph 10.3 mph 93.7% 0.03 in 0 W/m2
01:34 34 °F 32.4 °F 29.95 in ENE 3.8 mph 10.3 mph 94% 0.03 in 0 W/m2
01:39 34 °F 32.4 °F 29.94 in NE 3.1 mph 8.1 mph 94% 0.04 in 0 W/m2
01:44 33.9 °F 32.4 °F 29.94 in ENE 4.3 mph 9.2 mph 94% 0.04 in 0 W/m2
01:49 33.9 °F 32.4 °F 29.94 in NE 4.7 mph 10.3 mph 94% 0.03 in 0 W/m2
01:54 33.9 °F 32.4 °F 29.94 in NE 3.8 mph 10.3 mph 94% 0.03 in 0 W/m2
01:59 33.9 °F 32.4 °F 29.93 in ENE 5.1 mph 11.5 mph 94% 0.03 in 0 W/m2
02:04 33.9 °F 32.4 °F 29.93 in NE 4.3 mph 11.5 mph 94% 0.03 in 0 W/m2
02:09 34 °F 32.4 °F 29.93 in NE 5.7 mph 10.3 mph 94% 0.03 in 0 W/m2
02:14 34 °F 32.5 °F 29.93 in ENE 4.5 mph 10.3 mph 94% 0.03 in 0 W/m2
02:19 34 °F 32.5 °F 29.93 in NE 3.4 mph 9.2 mph 94% 0.03 in 0 W/m2
02:24 34 °F 32.5 °F 29.92 in NE 4.5 mph 9.2 mph 94% 0.02 in 0 W/m2
02:29 34 °F 32.5 °F 29.92 in ENE 4.8 mph 10.3 mph 94% 0.02 in 0 W/m2
02:34 34 °F 32.5 °F 29.92 in ENE 4.4 mph 10.3 mph 94% 0.02 in 0 W/m2
02:39 34 °F 32.5 °F 29.92 in ENE 4.8 mph 9.2 mph 94% 0.01 in 0 W/m2
02:44 34 °F 32.5 °F 29.92 in ENE 5.1 mph 10.3 mph 94% 0.01 in 0 W/m2
02:49 34.1 °F 32.5 °F 29.92 in ENE 3.6 mph 10.3 mph 94% 0.00 in 0 W/m2
02:54 34.1 °F 32.6 °F 29.92 in ENE 4.1 mph 8.1 mph 94% 0.00 in 0 W/m2
02:59 34.2 °F 32.6 °F 29.92 in ENE 4.6 mph 9.2 mph 94% 0.00 in 0 W/m2
03:04 34.2 °F 32.7 °F 29.92 in ENE 3.1 mph 9.2 mph 94% 0.01 in 0 W/m2
03:09 34.2 °F 32.7 °F 29.92 in ENE 4.6 mph 10.3 mph 94% 0.01 in 0 W/m2
03:14 34.2 °F 32.7 °F 29.92 in NE 3.7 mph 10.3 mph 94% 0.01 in 0 W/m2
03:19 34.2 °F 32.7 °F 29.92 in ENE 4.3 mph 9.2 mph 94% 0.01 in 0 W/m2
03:24 34.2 °F 32.7 °F 29.92 in ENE 2.8 mph 8.1 mph 94% 0.01 in 0 W/m2
03:29 34.3 °F 32.8 °F 29.91 in ENE 3.5 mph 6.9 mph 94% 0.01 in 0 W/m2
03:34 34.3 °F 32.8 °F 29.91 in ENE 3.9 mph 10.3 mph 94% 0.01 in 0 W/m2
03:39 34.3 °F 32.8 °F 29.91 in ENE 3.6 mph 10.3 mph 94% 0.02 in 0 W/m2
03:44 34.3 °F 32.8 °F 29.91 in ENE 3.8 mph 9.2 mph 94% 0.02 in 0 W/m2
03:49 34.4 °F 32.8 °F 29.91 in ENE 2.9 mph 9.2 mph 94% 0.02 in 0 W/m2
03:54 34.4 °F 32.8 °F 29.91 in ENE 4 mph 9.2 mph 94% 0.02 in 0 W/m2
03:59 34.4 °F 32.8 °F 29.91 in ENE 3.2 mph 9.2 mph 94% 0.02 in 0 W/m2
04:04 34.3 °F 32.8 °F 29.91 in ENE 4 mph 11.5 mph 94% 0.02 in 0 W/m2
04:09 34.4 °F 32.8 °F 29.90 in ENE 3.9 mph 11.5 mph 94% 0.02 in 0 W/m2
04:14 34.3 °F 32.8 °F 29.90 in ENE 4.6 mph 10.3 mph 94% 0.01 in 0 W/m2
04:19 34.3 °F 32.8 °F 29.90 in ENE 4.4 mph 10.3 mph 94% 0.01 in 0 W/m2
04:24 34.4 °F 32.9 °F 29.90 in ENE 4.3 mph 9.2 mph 94.2% 0.01 in 0 W/m2
04:29 34.4 °F 33 °F 29.90 in ENE 5.2 mph 10.3 mph 94.5% 0.02 in 0 W/m2
04:34 34.4 °F 33 °F 29.89 in ENE 4.1 mph 10.3 mph 94.6% 0.02 in 0 W/m2
04:39 34.5 °F 33.2 °F 29.89 in East 4.9 mph 10.3 mph 95% 0.02 in 0 W/m2
04:44 34.5 °F 33.2 °F 29.89 in ENE 3.8 mph 10.3 mph 95% 0.02 in 0 W/m2
04:49 34.5 °F 33.3 °F 29.89 in ENE 3.6 mph 8.1 mph 95% 0.01 in 0 W/m2
04:54 34.6 °F 33.3 °F 29.89 in ENE 4.6 mph 9.2 mph 95% 0.01 in 0 W/m2
04:59 34.6 °F 33.3 °F 29.89 in East 4.6 mph 10.3 mph 95% 0.01 in 0 W/m2
05:04 34.6 °F 33.3 °F 29.89 in ENE 4.4 mph 10.3 mph 95% 0.01 in 0 W/m2
05:09 34.6 °F 33.3 °F 29.89 in East 3.2 mph 8.1 mph 95% 0.01 in 0 W/m2
05:14 34.6 °F 33.4 °F 29.89 in East 4.8 mph 10.3 mph 95% 0.01 in 0 W/m2
05:19 34.7 °F 33.4 °F 29.89 in East 4 mph 10.3 mph 95% 0.01 in 0 W/m2
05:24 34.7 °F 33.4 °F 29.89 in ENE 3.4 mph 8.1 mph 95% 0.01 in 0 W/m2
05:29 34.8 °F 33.5 °F 29.89 in East 3.3 mph 8.1 mph 95% 0.01 in 0 W/m2
05:34 34.9 °F 33.6 °F 29.89 in East 3.9 mph 8.1 mph 95% 0.01 in 0 W/m2
05:39 34.9 °F 33.6 °F 29.89 in ENE 3.7 mph 8.1 mph 95% 0.00 in 0 W/m2
05:44 34.9 °F 33.6 °F 29.89 in ENE 3.8 mph 8.1 mph 95% 0.00 in 0 W/m2
05:49 34.9 °F 33.6 °F 29.89 in ENE 3.9 mph 8.1 mph 95% 0.00 in 0 W/m2
05:54 34.9 °F 33.7 °F 29.89 in East 5.2 mph 9.2 mph 95% 0.00 in 0 W/m2
05:59 35 °F 33.7 °F 29.89 in ENE 3.1 mph 9.2 mph 95% 0.00 in 0 W/m2
06:04 35 °F 33.7 °F 29.89 in ENE 3.1 mph 8.1 mph 95% 0.00 in 0 W/m2
06:09 35 °F 33.7 °F 29.89 in East 2.7 mph 6.9 mph 95% 0.00 in 0 W/m2
06:14 35 °F 33.7 °F 29.89 in East 2.8 mph 9.2 mph 95% 0.00 in 0 W/m2
06:19 35 °F 33.7 °F 29.89 in ENE 3.2 mph 9.2 mph 95% 0.00 in 0 W/m2
06:24 35 °F 33.7 °F 29.89 in ENE 3.9 mph 10.3 mph 95% 0.00 in 0 W/m2
06:29 35 °F 33.7 °F 29.89 in ENE 4.2 mph 10.3 mph 95% 0.00 in 0 W/m2
06:34 35 °F 33.7 °F 29.89 in ENE 3.2 mph 9.2 mph 95% 0.00 in 0 W/m2
06:39 35 °F 33.7 °F 29.89 in ENE 3.9 mph 8.1 mph 95% 0.00 in 0 W/m2
06:44 35 °F 33.7 °F 29.89 in ENE 3.7 mph 8.1 mph 95% 0.00 in 0 W/m2
06:49 35 °F 33.7 °F 29.89 in ENE 3.2 mph 9.2 mph 95% 0.00 in 0 W/m2
06:54 35 °F 33.7 °F 29.89 in ENE 2.7 mph 9.2 mph 95% 0.00 in 0 W/m2
06:59 35 °F 33.8 °F 29.89 in ENE 4.1 mph 8.1 mph 95% 0.00 in 0 W/m2
07:04 35 °F 33.7 °F 29.89 in East 4.2 mph 9.2 mph 95% 0.00 in 0 W/m2
07:09 35 °F 33.7 °F 29.89 in ENE 4.8 mph 9.2 mph 95% 0.00 in 0 W/m2
07:14 35 °F 33.7 °F 29.89 in ENE 4 mph 9.2 mph 95% 0.00 in 0 W/m2
07:19 35 °F 33.7 °F 29.89 in ENE 4.1 mph 9.2 mph 95% 0.00 in 0 W/m2
07:24 34.9 °F 33.6 °F 29.89 in ENE 3.5 mph 8.1 mph 95% 0.00 in 0 W/m2
07:29 34.9 °F 33.6 °F 29.89 in ENE 4 mph 9.2 mph 95% 0.00 in 0 W/m2
07:34 34.9 °F 33.6 °F 29.89 in East 4.6 mph 9.2 mph 95% 0.00 in 0 W/m2
07:39 34.9 °F 33.6 °F 29.89 in East 3.7 mph 8.1 mph 95% 0.00 in 0 W/m2
07:44 34.9 °F 33.6 °F 29.89 in East 3.4 mph 8.1 mph 95% 0.00 in 0 W/m2
07:49 34.9 °F 33.6 °F 29.89 in East 2.4 mph 6.9 mph 95% 0.00 in 5 W/m2
07:54 34.9 °F 33.6 °F 29.89 in ENE 3.3 mph 8.1 mph 95% 0.00 in 7 W/m2
07:59 34.9 °F 33.6 °F 29.89 in East 4.4 mph 8.1 mph 95% 0.00 in 5 W/m2
08:04 34.9 °F 33.6 °F 29.89 in East 4 mph 8.1 mph 95% 0.00 in 0 W/m2
08:09 34.9 °F 33.6 °F 29.89 in ENE 3.1 mph 8.1 mph 95% 0.01 in 5 W/m2
08:14 34.9 °F 33.6 °F 29.89 in East 3.7 mph 8.1 mph 95% 0.01 in 9 W/m2
08:19 34.9 °F 33.6 °F 29.89 in East 2.6 mph 8.1 mph 95% 0.01 in 14 W/m2
08:24 34.9 °F 33.6 °F 29.89 in ENE 3.2 mph 8.1 mph 95% 0.01 in 16 W/m2
08:29 34.9 °F 33.6 °F 29.89 in ENE 3.1 mph 8.1 mph 95% 0.01 in 16 W/m2
08:34 34.9 °F 33.6 °F 29.89 in ENE 3.1 mph 8.1 mph 95% 0.01 in 16 W/m2
08:39 34.9 °F 33.6 °F 29.89 in ENE 4.1 mph 9.2 mph 95% 0.01 in 18 W/m2
08:44 34.9 °F 33.7 °F 29.89 in East 4 mph 9.2 mph 95% 0.01 in 21 W/m2
08:49 35 °F 33.7 °F 29.89 in East 3.2 mph 8.1 mph 95% 0.01 in 23 W/m2
08:54 35 °F 33.7 °F 29.89 in East 3.3 mph 8.1 mph 95% 0.01 in 25 W/m2
08:59 35.1 °F 33.8 °F 29.89 in East 3.3 mph 9.2 mph 95% 0.01 in 35 W/m2
09:04 35.1 °F 33.8 °F 29.89 in East 3 mph 9.2 mph 95% 0.01 in 35 W/m2
09:09 35.1 °F 33.9 °F 29.89 in East 4.3 mph 6.9 mph 95.2% 0.01 in 32 W/m2
09:14 35.2 °F 33.9 °F 29.89 in East 2.3 mph 6.9 mph 95% 0.01 in 25 W/m2
09:19 35.2 °F 33.9 °F 29.89 in East 2 mph 5.8 mph 95% 0.00 in 28 W/m2
09:24 35.2 °F 33.9 °F 29.89 in East 2.4 mph 5.8 mph 95% 0.00 in 28 W/m2
09:29 35.2 °F 33.9 °F 29.89 in East 2.8 mph 6.9 mph 95% 0.00 in 32 W/m2
09:34 35.2 °F 33.9 °F 29.89 in East 3.3 mph 6.9 mph 95% 0.00 in 46 W/m2
09:39 35.2 °F 33.9 °F 29.89 in East 2.8 mph 6.9 mph 95% 0.00 in 46 W/m2
09:44 35.3 °F 34.1 °F 29.89 in East 2.3 mph 5.8 mph 95.4% 0.00 in 51 W/m2
09:49 35.4 °F 34.3 °F 29.89 in East 0.7 mph 5.8 mph 95.9% 0.00 in 46 W/m2
09:54 35.4 °F 34.4 °F 29.89 in East 2.6 mph 6.9 mph 96% 0.00 in 62 W/m2
09:59 35.6 °F 34.5 °F 29.89 in East 2 mph 6.9 mph 96% 0.00 in 69 W/m2
10:04 35.7 °F 34.6 °F 29.89 in East 2.1 mph 5.8 mph 96% 0.00 in 65 W/m2
10:09 35.8 °F 34.8 °F 29.89 in East 1.7 mph 5.8 mph 96% 0.00 in 109 W/m2
10:14 35.9 °F 34.9 °F 29.89 in East 2.9 mph 5.8 mph 96% 0.00 in 109 W/m2
10:19 36 °F 35 °F 29.89 in East 3 mph 5.8 mph 96% 0.00 in 60 W/m2
10:24 36.1 °F 35.1 °F 29.88 in East 3.4 mph 6.9 mph 96% 0.00 in 86 W/m2
10:29 36.2 °F 35.2 °F 29.89 in East 4.8 mph 9.2 mph 96% 0.00 in 83 W/m2
10:34 36.3 °F 35.3 °F 29.89 in East 3.4 mph 9.2 mph 96% 0.00 in 54 W/m2
10:39 36.3 °F 35.3 °F 29.89 in East 3.8 mph 9.2 mph 96% 0.00 in 56 W/m2
10:44 36.3 °F 35.3 °F 29.88 in East 2.7 mph 9.2 mph 96% 0.00 in 63 W/m2
10:49 36.4 °F 35.3 °F 29.88 in East 2.6 mph 6.9 mph 96% 0.00 in 63 W/m2
10:54 36.4 °F 35.4 °F 29.88 in East 2.5 mph 5.8 mph 96% 0.00 in 62 W/m2
10:59 36.4 °F 35.4 °F 29.88 in East 3 mph 6.9 mph 96% 0.00 in 46 W/m2
11:04 36.4 °F 35.4 °F 29.88 in East 3 mph 6.9 mph 96% 0.00 in 46 W/m2
11:09 36.4 °F 35.4 °F 29.88 in East 2.6 mph 6.9 mph 96% 0.00 in 37 W/m2
11:14 36.4 °F 35.3 °F 29.88 in East 3 mph 6.9 mph 96% 0.00 in 39 W/m2
11:19 36.3 °F 35.2 °F 29.88 in East 1.6 mph 6.9 mph 95.8% 0.00 in 40 W/m2
11:24 36.3 °F 35.1 °F 29.88 in East 1.2 mph 6.9 mph 95.5% 0.00 in 39 W/m2
11:29 36.3 °F 35.1 °F 29.88 in East 2.5 mph 6.9 mph 95.6% 0.00 in 37 W/m2
11:34 36.2 °F 35.2 °F 29.88 in East 2.3 mph 6.9 mph 96% 0.00 in 44 W/m2
11:39 36.2 °F 35.2 °F 29.87 in East 2 mph 3.4 mph 96% 0.00 in 53 W/m2
11:44 36.2 °F 35.2 °F 29.87 in East 1.1 mph 3.4 mph 96% 0.00 in 60 W/m2
11:49 36.2 °F 35.2 °F 29.87 in East 2 mph 3.4 mph 96% 0.00 in 74 W/m2
11:54 36.3 °F 35.2 °F 29.86 in East 1.6 mph 3.4 mph 96% 0.00 in 91 W/m2
11:59 36.3 °F 35.3 °F 29.86 in East 0.6 mph 3.4 mph 96% 0.00 in 109 W/m2
12:04 36.5 °F 35.4 °F 29.85 in East 1.2 mph 3.4 mph 96% 0.00 in 114 W/m2
12:09 36.6 °F 35.6 °F 29.86 in East 3.4 mph 5.8 mph 96% 0.00 in 95 W/m2
12:14 36.8 °F 35.7 °F 29.86 in East 2.8 mph 5.8 mph 96% 0.00 in 74 W/m2
12:19 36.8 °F 35.8 °F 29.85 in East 1.4 mph 5.8 mph 96% 0.00 in 76 W/m2
12:24 36.9 °F 35.9 °F 29.85 in East 0.3 mph 3.4 mph 96% 0.00 in 70 W/m2
12:29 36.9 °F 35.9 °F 29.85 in East 1 mph 2.3 mph 96% 0.00 in 65 W/m2
12:34 37 °F 36 °F 29.85 in East 1.3 mph 3.4 mph 96% 0.00 in 83 W/m2
12:39 37 °F 36 °F 29.84 in East 0.6 mph 3.4 mph 96% 0.00 in 91 W/m2
12:44 37.1 °F 36.1 °F 29.84 in East 0.6 mph 3.4 mph 96% 0.00 in 98 W/m2
12:49 37.2 °F 36.2 °F 29.84 in East 0.5 mph 3.4 mph 96% 0.01 in 102 W/m2
12:54 37.3 °F 36.2 °F 29.84 in East 1.2 mph 2.3 mph 96% 0.01 in 86 W/m2
12:59 37.3 °F 36.3 °F 29.83 in East 0.8 mph 3.4 mph 96% 0.01 in 121 W/m2
13:04 37.4 °F 36.4 °F 29.83 in East 1.1 mph 3.4 mph 96% 0.01 in 123 W/m2
13:09 37.5 °F 36.5 °F 29.83 in East 0.5 mph 3.4 mph 96% 0.01 in 125 W/m2
13:14 37.6 °F 36.6 °F 29.83 in East 1.4 mph 3.4 mph 96% 0.01 in 125 W/m2
13:19 37.7 °F 36.6 °F 29.83 in East 0.3 mph 3.4 mph 96% 0.01 in 111 W/m2
13:24 37.8 °F 36.7 °F 29.83 in East 1.1 mph 2.3 mph 96% 0.01 in 84 W/m2
13:29 37.8 °F 36.8 °F 29.83 in East 0.7 mph 2.3 mph 96% 0.01 in 76 W/m2
13:34 37.8 °F 36.8 °F 29.83 in East 1.4 mph 5.8 mph 96% 0.01 in 84 W/m2
13:39 37.9 °F 36.9 °F 29.82 in East 1.7 mph 5.8 mph 96% 0.01 in 111 W/m2
13:44 38 °F 37 °F 29.82 in East 1.2 mph 5.8 mph 96% 0.01 in 132 W/m2
13:49 38.1 °F 37.1 °F 29.81 in East 2.8 mph 5.8 mph 96% 0.01 in 125 W/m2
13:54 38.3 °F 37.2 °F 29.82 in East 1.3 mph 5.8 mph 96% 0.01 in 121 W/m2
13:59 38.4 °F 37.3 °F 29.82 in East 1.4 mph 3.4 mph 96% 0.00 in 130 W/m2
14:04 38.5 °F 37.5 °F 29.82 in East 2.1 mph 3.4 mph 96% 0.00 in 130 W/m2
14:09 38.7 °F 37.6 °F 29.82 in East 3.4 mph 5.8 mph 96% 0.00 in 141 W/m2
14:14 38.8 °F 37.7 °F 29.82 in East 1.6 mph 5.8 mph 96% 0.00 in 128 W/m2
14:19 38.8 °F 37.8 °F 29.81 in East 1.1 mph 3.4 mph 96% 0.00 in 113 W/m2
14:24 38.8 °F 37.8 °F 29.82 in East 0.7 mph 3.4 mph 96% 0.00 in 97 W/m2
14:29 38.8 °F 37.8 °F 29.82 in East 0.1 mph 3.4 mph 96% 0.00 in 56 W/m2
14:34 38.8 °F 37.7 °F 29.82 in East 1.8 mph 3.4 mph 96% 0.00 in 62 W/m2
14:39 38.7 °F 37.7 °F 29.82 in East 0.7 mph 3.4 mph 96% 0.00 in 76 W/m2
14:44 38.7 °F 37.7 °F 29.81 in East 1 mph 3.4 mph 96% 0.00 in 81 W/m2
14:49 38.7 °F 37.6 °F 29.82 in East 1 mph 3.4 mph 96% 0.00 in 58 W/m2
14:54 38.6 °F 37.5 °F 29.82 in East 2 mph 3.4 mph 96% 0.00 in 56 W/m2
14:59 38.5 °F 37.5 °F 29.82 in East 2 mph 5.8 mph 96% 0.00 in 51 W/m2
15:04 38.5 °F 37.5 °F 29.82 in East 1.1 mph 5.8 mph 96% 0.00 in 35 W/m2
15:09 38.4 °F 37.4 °F 29.81 in East 0.7 mph 5.8 mph 96% 0.00 in 26 W/m2
15:14 38.3 °F 37.3 °F 29.82 in East 2.2 mph 5.8 mph 96% 0.00 in 26 W/m2
15:19 38.2 °F 37.2 °F 29.82 in East 2.5 mph 5.8 mph 96% 0.00 in 26 W/m2
15:24 38.1 °F 37.1 °F 29.82 in ESE 2.1 mph 5.8 mph 96% 0.00 in 28 W/m2
15:29 38 °F 36.9 °F 29.82 in ESE 2.8 mph 4.6 mph 96% 0.00 in 28 W/m2
15:34 37.9 °F 36.9 °F 29.82 in SSE 3.5 mph 5.8 mph 96% 0.00 in 28 W/m2
15:39 37.8 °F 36.8 °F 29.82 in South 2.9 mph 5.8 mph 96% 0.00 in 28 W/m2
15:44 37.7 °F 36.6 °F 29.82 in SW 4.8 mph 8.1 mph 96% 0.00 in 23 W/m2
15:49 37.5 °F 36.5 °F 29.82 in SW 4.1 mph 8.1 mph 96% 0.00 in 19 W/m2
15:54 37.4 °F 36.4 °F 29.82 in SSW 3 mph 6.9 mph 96% 0.00 in 14 W/m2
15:59 37.3 °F 36.3 °F 29.82 in SSW 2.5 mph 5.8 mph 96% 0.00 in 16 W/m2
16:04 37.2 °F 36.2 °F 29.82 in SSW 2.3 mph 5.8 mph 96% 0.00 in 16 W/m2
16:09 37.1 °F 36.1 °F 29.82 in SSW 3.1 mph 5.8 mph 96% 0.00 in 14 W/m2
16:14 37.1 °F 36 °F 29.82 in SSW 2.9 mph 5.8 mph 96% 0.00 in 12 W/m2
16:19 37 °F 35.9 °F 29.82 in South 2.6 mph 4.6 mph 96% 0.00 in 12 W/m2
16:24 36.9 °F 35.9 °F 29.83 in South 3.2 mph 5.8 mph 96% 0.00 in 11 W/m2
16:29 36.8 °F 35.8 °F 29.82 in SSW 3.3 mph 5.8 mph 96% 0.01 in 9 W/m2
16:34 36.6 °F 35.6 °F 29.82 in SW 3.7 mph 6.9 mph 96% 0.01 in 9 W/m2
16:39 36.5 °F 35.5 °F 29.82 in SW 4.8 mph 8.1 mph 96% 0.01 in 9 W/m2
16:44 36.4 °F 35.3 °F 29.83 in SSW 4 mph 8.1 mph 96% 0.01 in 7 W/m2
16:49 36.2 °F 35.2 °F 29.83 in SSW 3.9 mph 6.9 mph 96% 0.01 in 0 W/m2
16:54 36.2 °F 35.2 °F 29.83 in SSW 3.2 mph 6.9 mph 96% 0.01 in 0 W/m2
16:59 36.1 °F 35 °F 29.83 in SSW 3.1 mph 6.9 mph 96% 0.01 in 0 W/m2
17:04 36 °F 34.9 °F 29.83 in SSW 3.2 mph 5.8 mph 96% 0.02 in 0 W/m2
17:09 35.8 °F 34.8 °F 29.83 in SSW 2.2 mph 5.8 mph 96% 0.02 in 0 W/m2
17:14 35.8 °F 34.8 °F 29.83 in SSW 3 mph 4.6 mph 96% 0.02 in 0 W/m2
17:19 35.7 °F 34.7 °F 29.83 in SSW 3.1 mph 5.8 mph 96% 0.02 in 0 W/m2
17:24 35.7 °F 34.7 °F 29.83 in SSW 1.7 mph 5.8 mph 96% 0.02 in 0 W/m2
17:29 35.6 °F 34.6 °F 29.84 in SSW 2.5 mph 4.6 mph 96% 0.02 in 0 W/m2
17:34 35.6 °F 34.5 °F 29.84 in SSW 1.7 mph 4.6 mph 96% 0.02 in 0 W/m2
17:39 35.5 °F 34.5 °F 29.84 in SSW 1.5 mph 4.6 mph 96% 0.01 in 0 W/m2
17:44 35.5 °F 34.4 °F 29.84 in SSW 2.5 mph 4.6 mph 96% 0.01 in 0 W/m2
17:49 35.4 °F 34.4 °F 29.84 in SSW 1.2 mph 4.6 mph 96% 0.01 in 0 W/m2
17:54 35.4 °F 34.4 °F 29.84 in SSW 1.9 mph 4.6 mph 96% 0.01 in 0 W/m2
17:59 35.4 °F 34.3 °F 29.84 in SSW 2.8 mph 4.6 mph 96% 0.01 in 0 W/m2
18:04 35.3 °F 34.3 °F 29.84 in SSW 2.3 mph 4.6 mph 96% 0.01 in 0 W/m2
18:09 35.2 °F 34.2 °F 29.84 in SSW 3 mph 4.6 mph 96% 0.01 in 0 W/m2
18:14 35.2 °F 34.2 °F 29.84 in SSW 3.2 mph 5.8 mph 96% 0.00 in 0 W/m2
18:19 35.2 °F 34.2 °F 29.84 in SSW 3.5 mph 5.8 mph 96% 0.00 in 0 W/m2
18:24 35.1 °F 34.1 °F 29.84 in SW 3.7 mph 5.8 mph 96% 0.01 in 0 W/m2
18:29 35.1 °F 34.1 °F 29.84 in SSW 4.4 mph 6.9 mph 96% 0.01 in 0 W/m2
18:34 35.1 °F 34.1 °F 29.84 in SSW 4.7 mph 6.9 mph 96% 0.01 in 0 W/m2
18:39 35.1 °F 34.1 °F 29.84 in SW 4.7 mph 8.1 mph 96% 0.01 in 0 W/m2
18:44 35.1 °F 34.1 °F 29.84 in WSW 5.4 mph 9.2 mph 96% 0.01 in 0 W/m2
18:49 35 °F 34 °F 29.84 in SW 4.7 mph 9.2 mph 96% 0.01 in 0 W/m2
18:54 35 °F 34 °F 29.84 in SW 5.3 mph 9.2 mph 96% 0.01 in 0 W/m2
18:59 34.9 °F 33.9 °F 29.84 in SW 6.1 mph 9.2 mph 96% 0.01 in 0 W/m2
19:04 34.9 °F 33.9 °F 29.84 in SW 5.3 mph 9.2 mph 96% 0.01 in 0 W/m2
19:09 34.8 °F 33.8 °F 29.84 in WSW 5 mph 8.1 mph 96% 0.01 in 0 W/m2
19:14 34.8 °F 33.8 °F 29.84 in SW 6.2 mph 9.2 mph 96% 0.01 in 0 W/m2
19:19 34.7 °F 33.7 °F 29.84 in WSW 5.7 mph 9.2 mph 96% 0.01 in 0 W/m2
19:24 34.7 °F 33.7 °F 29.84 in SW 5.2 mph 9.2 mph 96% 0.01 in 0 W/m2
19:29 34.6 °F 33.6 °F 29.84 in SW 4.3 mph 8.1 mph 96% 0.01 in 0 W/m2
19:34 34.6 °F 33.6 °F 29.84 in SW 5.2 mph 8.1 mph 96% 0.00 in 0 W/m2
19:39 34.5 °F 33.5 °F 29.84 in WSW 4.6 mph 8.1 mph 96% 0.00 in 0 W/m2
19:44 34.4 °F 33.4 °F 29.84 in WSW 4.6 mph 6.9 mph 96% 0.00 in 0 W/m2
19:49 34.4 °F 33.4 °F 29.84 in SW 4.1 mph 6.9 mph 96% 0.00 in 0 W/m2
19:54 34.3 °F 33.3 °F 29.84 in SW 4.9 mph 6.9 mph 96% 0.00 in 0 W/m2
19:59 34.3 °F 33.3 °F 29.84 in WSW 5.6 mph 8.1 mph 96% 0.00 in 0 W/m2
20:03 34.3 °F 33.2 °F 29.84 in WSW 5.8 mph 9.2 mph 96% 0.00 in 0 W/m2
Peotne Weather
Compliments of Weather Underground - 4 mb